logo dgac
Domingo 21 de Abril del 2024
Buscar por aerodromo o helipuerto
Ingrese nombre de aeródromo, localidad o designador OACI:

Aeródromo: Chacalluta (PUB) (SCAR)

Ubicación: Arica, XV Región, Chile (18º 20' 55'' S, 70º 20' 19'' W) Ver ubicación en el mapa

Pistas

Luces
Orientación Dimensión Pendiente Superficie Resistencia APCH THR RWY PAPI
02/20 2170 x 45 0,60 ASPH 40 F/A/X/T
Horas de operación H24
Elevación 51 m / 166 ft
Otra Información Adm : D.G.A.C
Uso : PUB
Ubicado a 18,5 Km al NW de la Cuidad de Arica
Central TEL 56-582281100 TEL ARO 56-582281109
email : aro.arica@dgac.gob.cl

Otra información ver AIP-Chile Volumen I AD 2.2-1 SCAR
CCCM/FCCV Descargar CCCM/FCCV
andera de Chile
Mapa de Chacalluta (PUB) (SCAR)

Último METAR

METAR SCAR 210700Z 25002KT CAVOK 19/13 Q1015

Último TAF

TAF SCAR 210430Z 2106/2206 35004KT CAVOK TN17/2110Z TX23/2118Z BECMG 2107/2109 10004KT BECMG 2114/2116 21014KT BECMG 2122/2200 21004KT

Últimas fotos cámaras

Imagen aerodromo Chacalluta (PUB) (SCAR) Norte tomada el 21-04-2024 07:34:20 Imagen aerodromo Chacalluta (PUB) (SCAR) S-Oeste tomada el 21-04-2024 07:33:53

Último NOTAM

A1068/24 NOTAMR A0788/24 Q)SCFZ/QMNHW/IV/BO/A/000/999/1821S07020W005 A)SCAR B)2404012141 C)2404262300 D) VRNO DLY BTN 1200-2200 IVNO DLY BTN 1400-2300 E)N SIDE OF THE GENERAL AVIATION RAMP, WIP MACHINERY AND PEOPLE